Time;durP1;ratioP1;P1;durP2;ratioP2;P2;SDS_P1;SDS_P2;PMS_P1;PMS_P2;Temp;Humidity;BMP_temperature;BMP_pressure;BME280_temperature;BME280_humidity;BME280_pressure;Samples;Min_cycle;Max_cycle;Signal;HPM_P1;HPM_P2
2021/07/29 00:01:27;;;;;;;9.43;8.73;;;;;;;;;;4987286;28;24417;-51
2021/07/29 00:03:52;;;;;;;8.50;7.80;;;;;;;;;;4988022;28;24411;-51
2021/07/29 00:06:18;;;;;;;9.57;8.87;;;;;;;;;;4981340;28;24441;-52
2021/07/29 00:08:43;;;;;;;9.97;9.27;;;;;;;;;;4987088;28;24464;-52
2021/07/29 00:11:09;;;;;;;9.17;8.47;;;;;;;;;;4986512;28;24440;-51
2021/07/29 00:13:35;;;;;;;9.70;8.80;;;;;;;;;;4986019;28;24405;-51
2021/07/29 00:16:02;;;;;;;9.43;8.63;;;;;;;;;;4983226;28;25041;-52
2021/07/29 00:21:12;;;;;;;9.02;8.32;;;;;;;;;;4986636;28;24460;-51
2021/07/29 00:23:37;;;;;;;9.18;8.40;;;;;;;;;;4987443;28;24806;-51
2021/07/29 00:26:02;;;;;;;9.07;8.38;;;;;;;;;;4986895;28;24415;-51
2021/07/29 00:28:27;;;;;;;8.40;7.80;;;;;;;;;;4988305;28;24420;-51
2021/07/29 00:30:52;;;;;;;9.07;8.37;;;;;;;;;;4983090;28;24966;-51
2021/07/29 00:33:17;;;;;;;8.63;8.02;;;;;;;;;;4979905;28;24509;-52
2021/07/29 00:35:43;;;;;;;9.13;8.43;;;;;;;;;;4987083;28;24413;-51
2021/07/29 00:38:08;;;;;;;8.77;7.97;;;;;;;;;;4990286;28;24799;-52
2021/07/29 00:40:33;;;;;;;8.68;7.97;;;;;;;;;;4988567;28;24948;-52
2021/07/29 00:42:58;;;;;;;7.83;7.13;;;;;;;;;;4986730;28;24970;-52
2021/07/29 00:45:23;;;;;;;7.80;7.20;;;;;;;;;;4987478;28;24420;-52
2021/07/29 00:47:48;;;;;;;7.60;7.00;;;;;;;;;;4970300;28;24429;-51
2021/07/29 00:50:14;;;;;;;7.60;7.00;;;;;;;;;;4990531;28;24798;-52
2021/07/29 00:52:39;;;;;;;7.30;6.80;;;;;;;;;;4986685;28;24851;-52
2021/07/29 00:55:05;;;;;;;7.50;6.97;;;;;;;;;;4990304;28;24998;-50
2021/07/29 00:57:30;;;;;;;7.50;6.90;;;;;;;;;;4989786;28;24468;-52
2021/07/29 00:59:55;;;;;;;6.60;6.10;;;;;;;;;;4991220;28;24460;-51
2021/07/29 01:02:20;;;;;;;7.53;6.90;;;;;;;;;;4987951;28;24788;-52
2021/07/29 01:04:46;;;;;;;8.03;7.43;;;;;;;;;;4988804;28;24424;-52
2021/07/29 01:07:11;;;;;;;7.40;6.80;;;;;;;;;;4987334;28;24464;-52
2021/07/29 01:09:36;;;;;;;8.03;7.43;;;;;;;;;;4984423;28;24787;-51
2021/07/29 01:12:01;;;;;;;7.30;6.80;;;;;;;;;;4990140;28;24405;-52
2021/07/29 01:14:26;;;;;;;7.40;6.80;;;;;;;;;;4990254;28;24504;-52
2021/07/29 01:16:52;;;;;;;6.90;6.40;;;;;;;;;;4985436;28;24820;-54
2021/07/29 01:19:19;;;;;;;6.70;6.20;;;;;;;;;;4988053;28;24409;-52
2021/07/29 01:21:45;;;;;;;6.40;6.00;;;;;;;;;;4983626;28;24412;-52
2021/07/29 01:24:10;;;;;;;7.60;7.10;;;;;;;;;;4989825;28;24780;-51
2021/07/29 01:26:35;;;;;;;7.32;6.72;;;;;;;;;;4985948;28;24413;-51
2021/07/29 01:29:00;;;;;;;7.45;6.95;;;;;;;;;;4983124;28;24508;-51
2021/07/29 01:31:29;;;;;;;7.40;6.70;;;;;;;;;;4989827;28;24997;-51
2021/07/29 01:33:55;;;;;;;7.03;6.50;;;;;;;;;;4989572;28;24410;-50
2021/07/29 01:36:20;;;;;;;6.60;6.10;;;;;;;;;;4978915;28;24807;-51
2021/07/29 01:38:45;;;;;;;6.50;6.00;;;;;;;;;;4988791;28;24515;-51
2021/07/29 01:41:10;;;;;;;7.80;7.20;;;;;;;;;;4988949;28;24504;-50
2021/07/29 01:43:36;;;;;;;7.27;6.77;;;;;;;;;;4985708;28;24505;-51
2021/07/29 01:46:01;;;;;;;7.03;6.43;;;;;;;;;;4989181;28;24970;-51
2021/07/29 01:48:26;;;;;;;6.97;6.47;;;;;;;;;;4985895;28;24410;-50
2021/07/29 01:50:52;;;;;;;7.00;6.50;;;;;;;;;;4982061;28;25032;-50
2021/07/29 01:53:17;;;;;;;7.30;6.80;;;;;;;;;;4990314;28;24449;-51
2021/07/29 01:55:43;;;;;;;6.87;6.37;;;;;;;;;;4988435;28;24421;-52
2021/07/29 01:58:08;;;;;;;7.22;6.63;;;;;;;;;;4988125;28;24436;-51
2021/07/29 02:00:34;;;;;;;7.30;6.80;;;;;;;;;;4988687;28;24545;-50
2021/07/29 02:02:59;;;;;;;8.17;7.57;;;;;;;;;;4982532;28;25139;-51
2021/07/29 02:05:25;;;;;;;7.53;7.03;;;;;;;;;;4988280;28;24474;-51
2021/07/29 02:07:50;;;;;;;8.00;7.40;;;;;;;;;;4985909;28;24421;-50
2021/07/29 02:10:15;;;;;;;7.30;6.70;;;;;;;;;;4986224;28;24433;-50
2021/07/29 02:12:40;;;;;;;7.40;6.90;;;;;;;;;;4981344;28;24480;-49
2021/07/29 02:15:06;;;;;;;7.30;6.80;;;;;;;;;;4983858;28;24409;-51
2021/07/29 02:17:31;;;;;;;8.37;7.70;;;;;;;;;;4986961;28;24520;-52
2021/07/29 02:19:56;;;;;;;7.90;7.30;;;;;;;;;;4975262;28;24827;-49
2021/07/29 02:22:21;;;;;;;7.65;7.05;;;;;;;;;;4984955;28;24451;-51
2021/07/29 02:24:46;;;;;;;7.40;6.90;;;;;;;;;;4989270;28;24511;-52
2021/07/29 02:27:11;;;;;;;8.00;7.40;;;;;;;;;;4986639;28;24413;-52
2021/07/29 02:29:37;;;;;;;7.73;7.13;;;;;;;;;;4988472;28;24433;-51
2021/07/29 02:32:03;;;;;;;7.68;7.07;;;;;;;;;;4987477;28;24815;-51
2021/07/29 02:34:28;;;;;;;8.30;7.60;;;;;;;;;;4988153;28;24413;-51
2021/07/29 02:36:53;;;;;;;7.78;7.07;;;;;;;;;;4988485;28;24501;-51
2021/07/29 02:39:18;;;;;;;8.13;7.47;;;;;;;;;;4985196;28;25011;-51
2021/07/29 02:41:43;;;;;;;7.80;7.30;;;;;;;;;;4983656;28;24414;-52
2021/07/29 02:44:09;;;;;;;7.65;7.05;;;;;;;;;;4985526;28;24413;-50
2021/07/29 02:46:34;;;;;;;7.67;7.07;;;;;;;;;;4986862;28;24418;-51
2021/07/29 02:48:59;;;;;;;7.57;7.00;;;;;;;;;;4985095;28;24409;-51
2021/07/29 02:51:24;;;;;;;7.67;7.17;;;;;;;;;;4986892;28;24448;-51
2021/07/29 02:53:49;;;;;;;8.20;7.60;;;;;;;;;;4986196;28;24803;-52
2021/07/29 02:56:15;;;;;;;8.70;8.00;;;;;;;;;;4985669;28;24780;-51
2021/07/29 02:58:40;;;;;;;8.52;7.72;;;;;;;;;;4986539;28;24467;-51
2021/07/29 03:01:05;;;;;;;8.27;7.68;;;;;;;;;;4982381;28;24420;-51
2021/07/29 03:03:30;;;;;;;8.60;7.90;;;;;;;;;;4985270;28;24772;-52
2021/07/29 03:05:56;;;;;;;9.10;8.40;;;;;;;;;;4987824;28;24559;-52
2021/07/29 03:08:21;;;;;;;8.07;7.38;;;;;;;;;;4986797;28;24559;-52
2021/07/29 03:10:46;;;;;;;8.10;7.40;;;;;;;;;;4982748;28;24605;-53
2021/07/29 03:13:11;;;;;;;8.73;8.02;;;;;;;;;;4976196;28;24476;-53
2021/07/29 03:15:36;;;;;;;8.40;7.70;;;;;;;;;;4986785;28;24417;-53
2021/07/29 03:18:02;;;;;;;7.75;7.25;;;;;;;;;;4986552;28;24424;-53
2021/07/29 03:20:27;;;;;;;8.00;7.40;;;;;;;;;;4986301;28;24421;-53
2021/07/29 03:22:52;;;;;;;7.80;7.30;;;;;;;;;;4987422;28;24416;-53
2021/07/29 03:25:17;;;;;;;8.30;7.70;;;;;;;;;;4988110;28;24424;-52
2021/07/29 03:27:43;;;;;;;7.73;7.13;;;;;;;;;;4987137;28;24409;-53
2021/07/29 03:30:08;;;;;;;8.40;7.70;;;;;;;;;;4987482;28;24824;-53
2021/07/29 03:32:33;;;;;;;8.00;7.40;;;;;;;;;;4986948;28;24417;-53
2021/07/29 03:34:58;;;;;;;8.03;7.40;;;;;;;;;;4988369;28;24495;-53
2021/07/29 03:37:23;;;;;;;8.15;7.50;;;;;;;;;;4987414;28;25021;-53
2021/07/29 03:39:49;;;;;;;8.00;7.30;;;;;;;;;;4985482;28;24448;-53
2021/07/29 03:42:14;;;;;;;7.67;7.10;;;;;;;;;;4977587;28;24409;-53
2021/07/29 03:44:39;;;;;;;9.17;8.47;;;;;;;;;;4983814;28;24448;-53
2021/07/29 03:47:04;;;;;;;7.80;7.20;;;;;;;;;;4974024;28;24492;-53
2021/07/29 03:49:32;;;;;;;8.70;8.10;;;;;;;;;;4970630;28;25476;-53
2021/07/29 03:51:59;;;;;;;8.77;8.07;;;;;;;;;;4979311;28;24540;-53
2021/07/29 03:54:24;;;;;;;8.93;8.13;;;;;;;;;;4984936;28;24431;-54
2021/07/29 03:56:49;;;;;;;7.05;6.55;;;;;;;;;;4977797;28;24627;-52
2021/07/29 03:59:14;;;;;;;7.22;6.72;;;;;;;;;;4986732;28;24452;-53
2021/07/29 04:01:40;;;;;;;7.20;6.60;;;;;;;;;;4983837;28;24424;-52
2021/07/29 04:04:05;;;;;;;7.85;7.25;;;;;;;;;;4985583;28;24820;-53
2021/07/29 04:06:30;;;;;;;7.70;7.10;;;;;;;;;;4977881;28;24406;-52
2021/07/29 04:08:55;;;;;;;8.13;7.53;;;;;;;;;;4986468;28;24500;-52
2021/07/29 04:11:20;;;;;;;8.63;7.93;;;;;;;;;;4986404;28;24432;-53
2021/07/29 04:13:45;;;;;;;7.10;6.50;;;;;;;;;;4981165;28;24413;-53
2021/07/29 04:16:11;;;;;;;7.07;6.57;;;;;;;;;;4987905;28;25054;-53
2021/07/29 04:18:37;;;;;;;7.40;6.90;;;;;;;;;;4980389;28;24444;-52
2021/07/29 04:21:02;;;;;;;7.07;6.47;;;;;;;;;;4982513;28;24451;-53
2021/07/29 04:23:27;;;;;;;7.00;6.50;;;;;;;;;;4978441;28;24436;-53
2021/07/29 04:25:52;;;;;;;6.90;6.30;;;;;;;;;;4981358;28;24417;-53
2021/07/29 04:28:17;;;;;;;6.77;6.37;;;;;;;;;;4980988;28;24424;-54
2021/07/29 04:30:42;;;;;;;5.30;4.90;;;;;;;;;;4981768;28;24468;-54
2021/07/29 04:33:08;;;;;;;6.03;5.63;;;;;;;;;;4981684;28;24557;-54
2021/07/29 04:35:33;;;;;;;4.40;4.10;;;;;;;;;;4982660;28;24436;-53
2021/07/29 04:37:58;;;;;;;4.67;4.37;;;;;;;;;;4982155;28;24421;-53
2021/07/29 04:40:24;;;;;;;5.50;5.10;;;;;;;;;;4982964;28;24416;-53
2021/07/29 04:42:49;;;;;;;4.80;4.50;;;;;;;;;;4980236;28;24429;-53
2021/07/29 04:45:14;;;;;;;4.90;4.60;;;;;;;;;;4983490;28;24467;-54
2021/07/29 04:47:39;;;;;;;5.10;4.70;;;;;;;;;;4983387;28;24512;-53
2021/07/29 04:50:04;;;;;;;4.80;4.40;;;;;;;;;;4978170;28;24483;-53
2021/07/29 04:52:30;;;;;;;4.95;4.55;;;;;;;;;;4983859;28;24480;-52
2021/07/29 04:54:55;;;;;;;4.38;4.07;;;;;;;;;;4983966;28;24508;-53
2021/07/29 04:57:20;;;;;;;4.20;4.00;;;;;;;;;;4982825;28;24417;-54
2021/07/29 04:59:45;;;;;;;4.40;4.10;;;;;;;;;;4980041;28;24787;-54
2021/07/29 05:02:10;;;;;;;5.10;4.70;;;;;;;;;;4975969;28;24806;-54
2021/07/29 05:04:35;;;;;;;4.63;4.33;;;;;;;;;;4980675;28;25385;-54
2021/07/29 05:07:01;;;;;;;3.50;3.30;;;;;;;;;;4983441;28;24709;-54
2021/07/29 05:09:26;;;;;;;4.07;3.77;;;;;;;;;;4983374;28;24421;-54
2021/07/29 05:11:51;;;;;;;5.55;5.05;;;;;;;;;;4982447;28;24463;-53
2021/07/29 05:14:16;;;;;;;5.03;4.63;;;;;;;;;;4976018;28;24465;-53
2021/07/29 05:16:41;;;;;;;3.72;3.53;;;;;;;;;;4984419;28;24412;-52
2021/07/29 05:19:06;;;;;;;4.35;4.05;;;;;;;;;;4982031;28;24422;-52
2021/07/29 05:21:31;;;;;;;3.80;3.50;;;;;;;;;;4975630;28;24425;-54
2021/07/29 05:23:57;;;;;;;4.20;4.00;;;;;;;;;;4976002;28;25298;-54
2021/07/29 05:26:22;;;;;;;4.30;4.00;;;;;;;;;;4978420;28;24507;-54
2021/07/29 05:28:47;;;;;;;4.47;4.17;;;;;;;;;;4982609;28;24416;-54
2021/07/29 05:31:13;;;;;;;4.23;3.93;;;;;;;;;;4978448;28;25000;-54
2021/07/29 05:33:39;;;;;;;3.90;3.50;;;;;;;;;;4974486;28;24954;-54
2021/07/29 05:36:05;;;;;;;3.80;3.50;;;;;;;;;;4979439;28;24515;-54
2021/07/29 05:38:30;;;;;;;3.40;3.10;;;;;;;;;;4980056;28;25036;-54
2021/07/29 05:40:58;;;;;;;3.33;3.13;;;;;;;;;;4981347;28;24456;-54
2021/07/29 05:43:24;;;;;;;3.20;3.00;;;;;;;;;;4989944;28;25065;-54
2021/07/29 05:45:49;;;;;;;3.27;3.07;;;;;;;;;;4990477;28;24483;-54
2021/07/29 05:48:14;;;;;;;3.20;3.00;;;;;;;;;;4990319;28;24417;-53
2021/07/29 05:50:39;;;;;;;3.30;3.10;;;;;;;;;;4989712;28;24425;-54
2021/07/29 05:53:04;;;;;;;3.30;3.00;;;;;;;;;;4989555;28;24564;-53
2021/07/29 05:55:29;;;;;;;3.28;3.08;;;;;;;;;;4990297;28;24404;-53
2021/07/29 05:57:54;;;;;;;4.67;3.30;;;;;;;;;;4989805;28;24441;-53
2021/07/29 06:00:20;;;;;;;3.65;3.35;;;;;;;;;;4972811;28;24586;-53
2021/07/29 06:02:45;;;;;;;3.40;3.20;;;;;;;;;;4978159;28;24994;-54
2021/07/29 06:05:10;;;;;;;3.30;3.10;;;;;;;;;;4980280;28;24453;-53
2021/07/29 06:07:35;;;;;;;4.10;3.70;;;;;;;;;;4986983;28;24472;-53
2021/07/29 06:10:00;;;;;;;3.50;3.20;;;;;;;;;;4985314;28;24783;-53
2021/07/29 06:12:27;;;;;;;3.90;3.50;;;;;;;;;;4985849;28;24779;-54
2021/07/29 06:14:53;;;;;;;3.90;3.50;;;;;;;;;;4985861;28;24413;-53
2021/07/29 06:17:22;;;;;;;3.47;3.17;;;;;;;;;;4985104;28;24443;-53
2021/07/29 06:19:47;;;;;;;4.00;3.70;;;;;;;;;;4985638;28;24436;-54
2021/07/29 06:22:12;;;;;;;3.70;3.40;;;;;;;;;;4985091;28;24413;-54
2021/07/29 06:24:37;;;;;;;4.10;3.80;;;;;;;;;;4982964;28;24440;-54
2021/07/29 06:27:02;;;;;;;3.60;3.40;;;;;;;;;;4982659;28;24416;-54
2021/07/29 06:29:27;;;;;;;3.40;3.10;;;;;;;;;;4978853;28;24528;-54
2021/07/29 06:31:53;;;;;;;3.70;3.50;;;;;;;;;;4971100;28;24428;-54
2021/07/29 06:34:18;;;;;;;4.00;3.70;;;;;;;;;;4983428;28;24516;-54
2021/07/29 06:36:43;;;;;;;4.53;4.22;;;;;;;;;;4985714;28;24961;-54
2021/07/29 06:39:08;;;;;;;4.63;4.00;;;;;;;;;;4985676;28;24404;-54
2021/07/29 06:41:33;;;;;;;3.73;3.53;;;;;;;;;;4985120;28;24520;-54
2021/07/29 06:44:00;;;;;;;4.00;3.60;;;;;;;;;;4977756;28;24413;-54
2021/07/29 06:46:25;;;;;;;4.10;3.80;;;;;;;;;;4986086;28;24396;-54
2021/07/29 06:48:50;;;;;;;3.70;3.50;;;;;;;;;;4986091;28;24843;-54
2021/07/29 06:51:15;;;;;;;3.80;3.50;;;;;;;;;;4978425;28;24531;-54
2021/07/29 06:53:40;;;;;;;3.88;3.58;;;;;;;;;;4985472;28;24425;-54
2021/07/29 06:56:06;;;;;;;3.77;3.47;;;;;;;;;;4979843;28;24502;-54
2021/07/29 06:58:31;;;;;;;3.60;3.40;;;;;;;;;;4977218;28;24416;-54
2021/07/29 07:01:01;;;;;;;3.90;3.60;;;;;;;;;;4977748;28;24837;-54
2021/07/29 07:03:27;;;;;;;4.40;3.58;;;;;;;;;;4974260;28;24994;-54
2021/07/29 07:05:52;;;;;;;3.77;3.47;;;;;;;;;;4973021;28;24418;-54
2021/07/29 07:08:17;;;;;;;3.90;3.60;;;;;;;;;;4967241;28;24461;-54
2021/07/29 07:10:43;;;;;;;3.60;3.30;;;;;;;;;;4973177;28;24483;-55
2021/07/29 07:13:08;;;;;;;3.50;3.30;;;;;;;;;;4988781;28;24971;-54
2021/07/29 07:15:33;;;;;;;3.53;3.23;;;;;;;;;;4988698;28;24488;-53
2021/07/29 07:17:59;;;;;;;3.77;3.57;;;;;;;;;;4988738;28;24910;-54
2021/07/29 07:20:24;;;;;;;3.77;3.47;;;;;;;;;;4988277;28;24489;-54
2021/07/29 07:22:50;;;;;;;3.40;3.20;;;;;;;;;;4988193;28;24436;-54
2021/07/29 07:25:15;;;;;;;3.40;3.20;;;;;;;;;;4988108;28;25050;-54
2021/07/29 07:27:40;;;;;;;3.90;3.60;;;;;;;;;;4988707;28;24463;-54
2021/07/29 07:30:06;;;;;;;3.30;3.10;;;;;;;;;;4988111;28;24508;-54
2021/07/29 07:32:31;;;;;;;3.87;3.57;;;;;;;;;;4988486;28;24935;-54
2021/07/29 07:34:56;;;;;;;3.33;3.10;;;;;;;;;;4988221;28;24416;-54
2021/07/29 07:37:21;;;;;;;3.40;3.10;;;;;;;;;;4985461;28;24473;-54
2021/07/29 07:39:47;;;;;;;3.57;3.27;;;;;;;;;;4988024;28;24393;-54
2021/07/29 07:42:12;;;;;;;3.60;3.30;;;;;;;;;;4988291;28;24475;-54
2021/07/29 07:44:37;;;;;;;3.70;3.10;;;;;;;;;;4987355;28;24428;-54
2021/07/29 07:47:02;;;;;;;3.20;3.00;;;;;;;;;;4987733;28;24478;-53
2021/07/29 07:49:27;;;;;;;2.90;2.70;;;;;;;;;;4988049;28;24385;-54
2021/07/29 07:51:52;;;;;;;3.20;2.90;;;;;;;;;;4987554;28;24425;-54
2021/07/29 07:54:18;;;;;;;3.33;3.03;;;;;;;;;;4987982;28;24404;-54
2021/07/29 07:56:43;;;;;;;3.40;3.00;;;;;;;;;;4987875;28;24406;-54
2021/07/29 07:59:09;;;;;;;3.40;2.53;;;;;;;;;;4988101;28;24541;-54
2021/07/29 08:01:36;;;;;;;3.10;2.90;;;;;;;;;;4987873;28;24397;-54
2021/07/29 08:04:01;;;;;;;3.10;2.80;;;;;;;;;;4987290;28;24751;-54
2021/07/29 08:06:27;;;;;;;3.43;3.13;;;;;;;;;;4988144;28;24431;-54
2021/07/29 08:08:52;;;;;;;2.80;2.60;;;;;;;;;;4987746;28;24389;-54
2021/07/29 08:11:18;;;;;;;3.00;2.80;;;;;;;;;;4987930;28;24533;-55
2021/07/29 08:13:43;;;;;;;2.90;2.70;;;;;;;;;;4988329;28;24947;-54
2021/07/29 08:16:09;;;;;;;2.72;2.47;;;;;;;;;;4987586;28;24863;-54
2021/07/29 08:18:34;;;;;;;3.00;2.80;;;;;;;;;;4987676;28;24428;-54
2021/07/29 08:20:59;;;;;;;3.30;3.00;;;;;;;;;;4987928;28;24464;-54
2021/07/29 08:23:24;;;;;;;3.30;3.10;;;;;;;;;;4987854;28;24460;-53
2021/07/29 08:25:50;;;;;;;3.30;3.10;;;;;;;;;;4987947;28;24401;-54
2021/07/29 08:28:15;;;;;;;2.80;2.60;;;;;;;;;;4987419;28;24421;-54
2021/07/29 08:30:40;;;;;;;3.07;2.80;;;;;;;;;;4987787;28;24431;-54
2021/07/29 08:33:09;;;;;;;4.03;3.30;;;;;;;;;;4987630;28;24727;-54
2021/07/29 08:35:35;;;;;;;3.05;2.83;;;;;;;;;;4987266;28;24933;-54
2021/07/29 08:38:00;;;;;;;3.45;3.10;;;;;;;;;;4987162;28;24417;-54
2021/07/29 08:40:25;;;;;;;3.40;3.10;;;;;;;;;;4987641;28;24471;-54
2021/07/29 08:42:51;;;;;;;3.55;3.25;;;;;;;;;;4987121;28;24405;-54
2021/07/29 08:45:16;;;;;;;3.10;2.88;;;;;;;;;;4987741;28;25268;-54
2021/07/29 08:47:45;;;;;;;3.05;2.85;;;;;;;;;;4987734;28;24459;-54
2021/07/29 08:50:11;;;;;;;3.80;3.50;;;;;;;;;;4990801;28;24899;-55
2021/07/29 08:52:36;;;;;;;4.00;3.10;;;;;;;;;;4990914;28;24504;-54
2021/07/29 08:55:02;;;;;;;3.38;2.80;;;;;;;;;;4991157;28;24377;-54
2021/07/29 08:57:28;;;;;;;3.60;3.30;;;;;;;;;;4991282;28;24449;-55
2021/07/29 08:59:53;;;;;;;2.90;2.70;;;;;;;;;;4990830;28;24422;-54
2021/07/29 09:02:25;;;;;;;3.40;3.10;;;;;;;;;;4990909;28;24419;-54
2021/07/29 09:05:05;;;;;;;3.60;3.30;;;;;;;;;;4990499;28;24413;-54
2021/07/29 09:07:32;;;;;;;3.50;3.20;;;;;;;;;;4991105;28;24955;-54
2021/07/29 09:09:58;;;;;;;3.75;3.08;;;;;;;;;;4990799;28;24417;-54
2021/07/29 09:12:26;;;;;;;3.43;3.13;;;;;;;;;;4990935;28;24481;-54
2021/07/29 09:14:52;;;;;;;3.70;3.40;;;;;;;;;;4990083;28;24412;-54
2021/07/29 09:17:18;;;;;;;3.55;3.25;;;;;;;;;;4989469;28;24425;-54
2021/07/29 09:19:50;;;;;;;3.80;3.40;;;;;;;;;;4990821;28;25005;-54
2021/07/29 09:22:15;;;;;;;3.30;3.00;;;;;;;;;;4990725;28;24485;-54
2021/07/29 09:24:53;;;;;;;3.80;3.50;;;;;;;;;;4990775;28;24496;-54
2021/07/29 09:27:19;;;;;;;3.45;3.20;;;;;;;;;;4990405;28;24449;-54
2021/07/29 09:29:44;;;;;;;3.40;3.10;;;;;;;;;;4990833;28;24452;-54
2021/07/29 09:32:09;;;;;;;3.63;3.00;;;;;;;;;;4990228;28;24985;-54
2021/07/29 09:34:45;;;;;;;3.50;3.20;;;;;;;;;;4990745;28;24921;-54
2021/07/29 09:37:11;;;;;;;4.65;3.33;;;;;;;;;;4989951;28;24464;-54
2021/07/29 09:39:36;;;;;;;3.80;3.50;;;;;;;;;;4990411;28;25230;-54
2021/07/29 09:42:18;;;;;;;3.70;3.40;;;;;;;;;;4989908;28;24460;-54
2021/07/29 09:44:44;;;;;;;3.47;3.28;;;;;;;;;;4990569;28;24480;-53
2021/07/29 09:47:09;;;;;;;3.65;3.35;;;;;;;;;;4990208;28;24412;-54
2021/07/29 09:49:35;;;;;;;4.00;3.70;;;;;;;;;;4990218;28;24408;-54
2021/07/29 09:52:01;;;;;;;3.75;3.45;;;;;;;;;;4989765;28;24974;-54
2021/07/29 09:54:27;;;;;;;3.22;3.03;;;;;;;;;;4971060;28;24470;-54
2021/07/29 09:56:52;;;;;;;3.10;2.90;;;;;;;;;;4970857;28;25014;-55
2021/07/29 09:59:17;;;;;;;4.00;3.40;;;;;;;;;;4969785;28;24393;-54
2021/07/29 10:01:42;;;;;;;3.80;3.40;;;;;;;;;;4970678;28;24927;-54
2021/07/29 10:04:08;;;;;;;2.95;2.75;;;;;;;;;;4983580;28;25367;-54
2021/07/29 10:06:34;;;;;;;3.40;3.10;;;;;;;;;;4990025;28;24412;-54
2021/07/29 10:09:03;;;;;;;3.40;3.20;;;;;;;;;;4989845;28;24390;-54
2021/07/29 10:11:30;;;;;;;3.55;3.35;;;;;;;;;;4989755;28;24819;-54
2021/07/29 10:13:55;;;;;;;3.40;3.20;;;;;;;;;;4989449;28;24412;-54
2021/07/29 10:16:39;;;;;;;3.50;3.20;;;;;;;;;;4989511;28;24745;-54
2021/07/29 10:19:05;;;;;;;4.05;3.65;;;;;;;;;;4989522;28;24485;-54
2021/07/29 10:21:31;;;;;;;4.00;3.60;;;;;;;;;;4989533;28;24493;-54
2021/07/29 10:23:58;;;;;;;4.50;3.15;;;;;;;;;;4989321;28;24448;-54
2021/07/29 10:26:23;;;;;;;3.78;3.40;;;;;;;;;;4989352;28;24464;-54
2021/07/29 10:28:48;;;;;;;3.40;3.20;;;;;;;;;;4989162;28;24405;-54
2021/07/29 10:31:15;;;;;;;3.80;3.60;;;;;;;;;;4989162;28;24417;-54
2021/07/29 10:33:40;;;;;;;3.75;3.45;;;;;;;;;;4989144;28;24429;-54
2021/07/29 10:36:06;;;;;;;3.80;3.50;;;;;;;;;;4988693;28;24440;-54
2021/07/29 10:38:53;;;;;;;3.83;3.53;;;;;;;;;;4989137;28;24464;-54
2021/07/29 10:41:21;;;;;;;4.32;3.92;;;;;;;;;;4988378;28;25117;-54
2021/07/29 10:43:46;;;;;;;3.90;3.60;;;;;;;;;;4989291;28;24429;-54
2021/07/29 10:46:11;;;;;;;3.93;3.63;;;;;;;;;;4988510;28;24436;-54
2021/07/29 10:51:23;;;;;;;4.40;4.00;;;;;;;;;;4988750;28;24436;-54
2021/07/29 10:53:54;;;;;;;4.10;3.80;;;;;;;;;;4989170;28;24429;-54
2021/07/29 10:56:22;;;;;;;4.03;3.57;;;;;;;;;;4988253;28;25168;-54
2021/07/29 10:58:48;;;;;;;4.20;3.60;;;;;;;;;;4989201;28;24440;-54
2021/07/29 11:01:15;;;;;;;4.60;4.20;;;;;;;;;;4988544;28;24985;-54
2021/07/29 11:03:54;;;;;;;4.03;3.72;;;;;;;;;;4988671;28;25009;-55
2021/07/29 11:06:39;;;;;;;3.97;3.67;;;;;;;;;;4988506;28;24409;-55
2021/07/29 11:09:18;;;;;;;3.78;3.47;;;;;;;;;;4988730;28;25029;-54
2021/07/29 11:11:44;;;;;;;4.20;3.90;;;;;;;;;;4987685;28;25044;-55
2021/07/29 11:14:09;;;;;;;4.75;4.35;;;;;;;;;;4987780;28;24452;-54
2021/07/29 11:16:36;;;;;;;4.55;4.15;;;;;;;;;;4988343;28;24776;-54
2021/07/29 11:19:02;;;;;;;4.05;3.70;;;;;;;;;;4988640;28;24943;-54
2021/07/29 11:21:27;;;;;;;4.60;4.20;;;;;;;;;;4988264;28;24806;-54
2021/07/29 11:23:53;;;;;;;4.23;3.93;;;;;;;;;;4988473;28;24459;-54
2021/07/29 11:26:18;;;;;;;4.30;4.00;;;;;;;;;;4988629;28;24447;-54
2021/07/29 11:28:43;;;;;;;3.90;3.50;;;;;;;;;;4988146;28;24463;-54
2021/07/29 11:31:08;;;;;;;4.33;4.03;;;;;;;;;;4988109;28;24786;-54
2021/07/29 11:33:33;;;;;;;4.32;3.92;;;;;;;;;;4988774;28;24824;-54
2021/07/29 11:36:07;;;;;;;4.10;3.80;;;;;;;;;;4988504;28;24975;-54
2021/07/29 11:38:32;;;;;;;3.80;3.50;;;;;;;;;;4987972;28;24893;-54
2021/07/29 11:41:01;;;;;;;4.00;3.70;;;;;;;;;;4988422;28;24477;-54
2021/07/29 11:43:27;;;;;;;4.40;4.10;;;;;;;;;;4988119;28;24931;-54
2021/07/29 11:46:02;;;;;;;5.10;3.80;;;;;;;;;;4988250;28;24500;-54
2021/07/29 11:48:27;;;;;;;3.85;3.63;;;;;;;;;;4987704;28;24959;-54
2021/07/29 11:50:53;;;;;;;3.90;3.60;;;;;;;;;;4987832;28;24436;-54
2021/07/29 11:53:19;;;;;;;4.30;3.90;;;;;;;;;;4987837;28;24816;-55
2021/07/29 11:55:54;;;;;;;3.90;3.60;;;;;;;;;;4988162;28;24393;-55
2021/07/29 11:58:19;;;;;;;4.15;3.75;;;;;;;;;;4987553;28;24826;-54
2021/07/29 12:00:46;;;;;;;4.30;4.00;;;;;;;;;;4988268;28;24970;-54
2021/07/29 12:03:11;;;;;;;4.30;3.90;;;;;;;;;;4987388;28;24463;-54
2021/07/29 12:05:39;;;;;;;4.00;3.50;;;;;;;;;;4987914;28;24946;-54
2021/07/29 12:08:04;;;;;;;3.93;3.63;;;;;;;;;;4987631;28;24986;-54
2021/07/29 12:10:30;;;;;;;3.30;3.10;;;;;;;;;;4987172;28;24456;-54
2021/07/29 12:12:55;;;;;;;3.70;3.40;;;;;;;;;;4987330;28;25155;-54
2021/07/29 12:15:21;;;;;;;3.70;3.50;;;;;;;;;;4987652;28;24492;-54
2021/07/29 12:17:46;;;;;;;3.40;3.20;;;;;;;;;;4988111;28;24389;-54
2021/07/29 12:20:14;;;;;;;4.10;3.50;;;;;;;;;;4987249;28;24460;-54
2021/07/29 12:22:41;;;;;;;4.03;3.72;;;;;;;;;;4989120;28;24396;-54
2021/07/29 12:25:09;;;;;;;3.37;3.17;;;;;;;;;;4991722;28;24836;-55
2021/07/29 12:27:44;;;;;;;3.77;3.43;;;;;;;;;;4991425;28;24435;-54
2021/07/29 12:30:26;;;;;;;4.10;3.80;;;;;;;;;;4990991;28;24436;-54
2021/07/29 12:33:03;;;;;;;3.90;3.60;;;;;;;;;;4991138;28;24496;-54
2021/07/29 12:35:28;;;;;;;4.47;3.83;;;;;;;;;;4991307;28;24433;-54
2021/07/29 12:37:59;;;;;;;4.80;3.97;;;;;;;;;;4991070;28;24435;-54
2021/07/29 12:40:31;;;;;;;4.30;3.90;;;;;;;;;;4991386;28;25096;-54
2021/07/29 12:43:15;;;;;;;4.25;3.95;;;;;;;;;;4991483;28;24395;-55
2021/07/29 12:45:47;;;;;;;3.88;3.58;;;;;;;;;;4991572;28;24507;-54
2021/07/29 12:48:12;;;;;;;4.00;3.60;;;;;;;;;;4990983;28;24794;-54
2021/07/29 12:50:38;;;;;;;3.78;3.38;;;;;;;;;;4991261;28;24987;-54
2021/07/29 12:53:06;;;;;;;3.60;3.30;;;;;;;;;;4990964;28;24460;-54
2021/07/29 12:55:35;;;;;;;3.35;3.05;;;;;;;;;;4991405;28;24416;-54
2021/07/29 12:58:00;;;;;;;3.65;3.35;;;;;;;;;;4991404;28;24436;-54
2021/07/29 13:00:25;;;;;;;3.45;3.15;;;;;;;;;;4990600;28;24444;-54
2021/07/29 13:02:51;;;;;;;3.77;3.57;;;;;;;;;;4990963;28;24428;-55
2021/07/29 13:05:16;;;;;;;3.53;3.22;;;;;;;;;;4991044;28;24483;-54
2021/07/29 13:07:41;;;;;;;3.87;3.57;;;;;;;;;;4991105;28;24397;-54
2021/07/29 13:10:07;;;;;;;3.90;3.60;;;;;;;;;;4990601;28;24860;-54
2021/07/29 13:12:33;;;;;;;4.05;3.50;;;;;;;;;;4990800;28;24385;-54
2021/07/29 13:14:59;;;;;;;3.65;3.35;;;;;;;;;;4990539;28;24389;-54
2021/07/29 13:17:24;;;;;;;3.50;3.30;;;;;;;;;;4990372;28;24516;-53
2021/07/29 13:19:49;;;;;;;3.40;3.20;;;;;;;;;;4984658;28;24571;-53
2021/07/29 13:22:15;;;;;;;3.30;3.10;;;;;;;;;;4986393;28;24466;-54
2021/07/29 13:24:40;;;;;;;3.83;3.53;;;;;;;;;;4983754;28;25045;-53
2021/07/29 13:27:05;;;;;;;3.60;3.30;;;;;;;;;;4988491;28;24522;-54
2021/07/29 13:29:30;;;;;;;3.83;3.50;;;;;;;;;;4987277;28;24413;-54
2021/07/29 13:31:55;;;;;;;3.97;3.67;;;;;;;;;;4989243;28;24984;-54
2021/07/29 13:34:22;;;;;;;3.40;3.20;;;;;;;;;;4985905;28;24420;-53
2021/07/29 13:36:47;;;;;;;3.60;3.30;;;;;;;;;;4989577;28;24440;-54
2021/07/29 13:39:12;;;;;;;5.67;3.80;;;;;;;;;;4989214;28;24823;-54
2021/07/29 13:41:37;;;;;;;3.80;3.50;;;;;;;;;;4984392;28;24421;-54
2021/07/29 13:44:07;;;;;;;3.75;3.50;;;;;;;;;;4987619;28;24420;-54
2021/07/29 13:46:32;;;;;;;4.07;3.67;;;;;;;;;;4985499;28;25073;-54
2021/07/29 13:48:57;;;;;;;3.80;3.40;;;;;;;;;;4989806;28;24441;-54
2021/07/29 13:51:32;;;;;;;4.38;3.70;;;;;;;;;;4988485;28;24444;-54
2021/07/29 13:53:59;;;;;;;5.80;4.10;;;;;;;;;;4972643;28;24471;-54
2021/07/29 13:56:24;;;;;;;4.05;3.75;;;;;;;;;;4989577;28;24413;-54
2021/07/29 13:58:49;;;;;;;3.73;3.53;;;;;;;;;;4988805;28;24416;-54
2021/07/29 14:01:14;;;;;;;3.90;3.70;;;;;;;;;;4989652;28;24962;-53
2021/07/29 14:03:39;;;;;;;4.00;3.70;;;;;;;;;;4989511;28;24443;-53
2021/07/29 14:06:04;;;;;;;4.30;4.00;;;;;;;;;;4989144;28;24417;-54
2021/07/29 14:08:30;;;;;;;4.78;4.38;;;;;;;;;;4988292;28;24511;-54
2021/07/29 14:10:55;;;;;;;3.90;3.60;;;;;;;;;;4989866;28;24439;-54
2021/07/29 14:13:20;;;;;;;4.20;3.80;;;;;;;;;;4993563;28;24570;-54
2021/07/29 14:15:45;;;;;;;4.35;4.00;;;;;;;;;;4990904;28;24478;-54
2021/07/29 14:18:12;;;;;;;4.53;4.00;;;;;;;;;;4983965;28;24425;-54
2021/07/29 14:20:58;;;;;;;4.22;3.88;;;;;;;;;;4987765;28;24572;-53
2021/07/29 14:23:23;;;;;;;5.15;4.18;;;;;;;;;;4989062;28;24436;-53
2021/07/29 14:25:49;;;;;;;4.20;3.90;;;;;;;;;;4986632;28;24959;-53
2021/07/29 14:28:14;;;;;;;4.20;3.90;;;;;;;;;;4987685;28;24503;-54
2021/07/29 14:30:41;;;;;;;4.50;4.20;;;;;;;;;;4987792;28;25139;-52
2021/07/29 14:33:06;;;;;;;3.95;3.65;;;;;;;;;;4986814;28;24868;-53
2021/07/29 14:35:33;;;;;;;3.90;3.50;;;;;;;;;;4988754;28;25194;-54
2021/07/29 14:37:58;;;;;;;4.70;4.20;;;;;;;;;;4989246;28;24439;-53
2021/07/29 14:40:23;;;;;;;3.83;3.53;;;;;;;;;;4989293;28;25173;-53
2021/07/29 14:42:48;;;;;;;4.20;3.80;;;;;;;;;;4986711;28;24436;-53